Time;durP1;ratioP1;P1;durP2;ratioP2;P2;SDS_P1;SDS_P2;PMS_P1;PMS_P2;Temp;Humidity;BMP_temperature;BMP_pressure;BME280_temperature;BME280_humidity;BME280_pressure;Samples;Min_cycle;Max_cycle;Signal;HPM_P1;HPM_P2
2022/03/04 00:00:45;;;;;;;0.00;0.00;;;1.80;99.90;;;;;;5052528;28;20215;-82
2022/03/04 00:03:11;;;;;;;0.10;0.10;;;1.80;99.90;;;;;;5035548;28;20053;-83
2022/03/04 00:05:38;;;;;;;0.10;0.10;;;1.80;99.90;;;;;;5035497;28;20051;-82
2022/03/04 00:08:05;;;;;;;0.00;0.00;;;1.70;99.90;;;;;;5035126;28;20049;-83
2022/03/04 00:10:31;;;;;;;0.38;0.38;;;1.70;99.90;;;;;;5035168;28;20144;-83
2022/03/04 00:12:57;;;;;;;0.10;0.10;;;1.70;99.90;;;;;;5035058;28;20051;-82
2022/03/04 00:15:23;;;;;;;2.50;0.60;;;1.60;99.90;;;;;;5035490;28;20493;-83
2022/03/04 00:17:49;;;;;;;1.23;0.43;;;1.60;99.90;;;;;;5051824;28;20117;-83
2022/03/04 00:20:15;;;;;;;4.57;0.40;;;1.60;99.90;;;;;;5051775;28;20076;-83
2022/03/04 00:22:42;;;;;;;1.02;0.52;;;1.50;99.90;;;;;;5051875;28;20151;-82
2022/03/04 00:25:07;;;;;;;2.00;1.10;;;1.50;99.90;;;;;;5051724;28;20519;-83
2022/03/04 00:27:33;;;;;;;0.98;0.10;;;1.50;99.90;;;;;;5035152;28;20088;-82
2022/03/04 00:29:59;;;;;;;1.25;0.22;;;1.50;99.90;;;;;;5051739;28;20052;-83
2022/03/04 00:32:25;;;;;;;0.17;0.17;;;1.50;99.90;;;;;;5038436;28;20077;-82
2022/03/04 00:34:51;;;;;;;0.00;0.00;;;1.40;99.90;;;;;;5038805;28;20531;-82
2022/03/04 00:37:16;;;;;;;0.00;0.00;;;1.40;99.90;;;;;;5055315;28;20045;-83
2022/03/04 00:39:42;;;;;;;0.45;0.45;;;1.40;99.90;;;;;;5055207;28;20111;-82
2022/03/04 00:42:08;;;;;;;1.75;0.93;;;1.40;99.90;;;;;;5054576;28;20377;-83
2022/03/04 00:44:34;;;;;;;0.00;0.00;;;1.40;99.90;;;;;;5038292;28;20102;-82
2022/03/04 00:47:00;;;;;;;0.00;0.00;;;1.40;99.90;;;;;;5038322;28;20057;-83
2022/03/04 00:49:26;;;;;;;0.10;0.10;;;1.40;99.90;;;;;;5055039;28;20087;-83
2022/03/04 00:51:51;;;;;;;0.00;0.00;;;1.30;99.90;;;;;;5038512;28;20401;-83
2022/03/04 00:54:17;;;;;;;0.22;0.22;;;1.30;99.90;;;;;;5054884;28;20455;-83
2022/03/04 00:56:43;;;;;;;0.00;0.00;;;1.20;99.90;;;;;;5055567;28;20419;-83
2022/03/04 00:59:08;;;;;;;0.13;0.13;;;1.20;99.90;;;;;;5054536;28;20052;-83
2022/03/04 01:01:34;;;;;;;0.10;0.10;;;1.20;99.90;;;;;;5037993;28;20049;-83
2022/03/04 01:04:00;;;;;;;0.10;0.10;;;1.20;99.90;;;;;;5054756;28;20151;-83
2022/03/04 01:06:26;;;;;;;1.35;0.10;;;1.10;99.90;;;;;;5038131;28;20060;-82
2022/03/04 01:08:51;;;;;;;0.00;0.00;;;1.10;99.90;;;;;;5054304;28;20045;-83
2022/03/04 01:11:17;;;;;;;0.10;0.00;;;1.10;99.90;;;;;;5055357;28;20102;-83
2022/03/04 01:13:42;;;;;;;0.03;0.03;;;1.00;99.90;;;;;;5054544;28;20476;-83
2022/03/04 01:16:08;;;;;;;0.80;0.68;;;1.00;99.90;;;;;;5054512;28;20049;-83
2022/03/04 01:18:34;;;;;;;0.63;0.40;;;0.90;99.90;;;;;;5054424;28;20106;-83
2022/03/04 01:21:00;;;;;;;0.00;0.00;;;0.90;99.90;;;;;;5037906;28;20045;-82
2022/03/04 01:23:25;;;;;;;1.08;0.43;;;0.90;99.90;;;;;;5037644;28;20476;-83
2022/03/04 01:25:52;;;;;;;0.43;0.22;;;0.80;99.90;;;;;;5038028;28;20045;-82
2022/03/04 01:28:20;;;;;;;0.08;0.00;;;0.80;99.90;;;;;;5037720;28;20087;-83
2022/03/04 01:30:46;;;;;;;1.05;0.75;;;0.80;99.90;;;;;;5037829;28;20037;-83
2022/03/04 01:33:12;;;;;;;0.55;0.20;;;0.70;99.90;;;;;;5054216;28;20067;-83
2022/03/04 01:35:38;;;;;;;1.15;0.20;;;0.80;99.90;;;;;;5037475;28;20489;-83
2022/03/04 01:38:04;;;;;;;1.30;0.88;;;0.80;99.90;;;;;;5053997;28;20442;-83
2022/03/04 01:40:30;;;;;;;0.52;0.35;;;0.70;99.90;;;;;;5054024;28;20095;-83
2022/03/04 01:42:56;;;;;;;0.93;0.60;;;0.70;99.90;;;;;;5036960;28;20042;-83
2022/03/04 01:45:22;;;;;;;0.00;0.00;;;0.70;99.90;;;;;;5037848;28;20481;-83
2022/03/04 01:47:48;;;;;;;0.52;0.52;;;0.70;99.90;;;;;;5054022;28;20048;-83
2022/03/04 01:50:14;;;;;;;2.35;0.65;;;0.60;99.90;;;;;;5053722;28;20087;-83
2022/03/04 01:52:40;;;;;;;0.08;0.08;;;0.60;99.90;;;;;;5053324;28;20041;-83
2022/03/04 01:55:08;;;;;;;6.78;0.35;;;0.60;99.90;;;;;;5036710;28;20040;-83
2022/03/04 01:57:35;;;;;;;1.02;0.47;;;0.60;99.90;;;;;;5036896;28;20511;-83
2022/03/04 02:00:02;;;;;;;1.65;0.55;;;0.60;99.90;;;;;;5054158;28;20472;-83
2022/03/04 02:02:28;;;;;;;1.63;0.50;;;0.60;99.90;;;;;;5036944;28;20052;-83
2022/03/04 02:04:54;;;;;;;0.13;0.10;;;0.50;99.90;;;;;;5053584;28;20437;-82
2022/03/04 02:07:20;;;;;;;0.10;0.10;;;0.40;99.90;;;;;;5036613;28;20386;-83
2022/03/04 02:09:45;;;;;;;0.25;0.10;;;0.40;99.90;;;;;;5036478;28;20045;-83
2022/03/04 02:12:11;;;;;;;0.30;0.30;;;0.30;99.90;;;;;;5036772;28;20083;-83
2022/03/04 02:14:36;;;;;;;1.15;0.70;;;0.40;99.90;;;;;;5036702;28;20049;-83
2022/03/04 02:17:04;;;;;;;1.85;0.82;;;0.40;99.90;;;;;;5036594;28;20049;-83
2022/03/04 02:19:29;;;;;;;0.20;0.20;;;0.40;99.90;;;;;;5053232;28;20555;-83
2022/03/04 02:21:57;;;;;;;0.10;0.10;;;0.40;99.90;;;;;;5053204;28;20049;-83
2022/03/04 02:24:25;;;;;;;0.30;0.30;;;0.40;99.90;;;;;;5036701;28;20061;-83
2022/03/04 02:26:56;;;;;;;0.10;0.10;;;0.40;99.90;;;;;;5053170;28;20182;-83
2022/03/04 02:29:23;;;;;;;0.00;0.00;;;0.30;99.90;;;;;;5053312;28;20108;-83
2022/03/04 02:31:49;;;;;;;0.00;0.00;;;0.20;99.90;;;;;;5053039;28;20123;-83
2022/03/04 02:34:16;;;;;;;0.00;0.00;;;0.20;99.90;;;;;;5053179;28;20380;-82
2022/03/04 02:36:42;;;;;;;0.00;0.00;;;0.10;99.90;;;;;;5036364;28;20060;-82
2022/03/04 02:39:08;;;;;;;0.00;0.00;;;0.20;99.90;;;;;;5036366;28;20045;-83
2022/03/04 02:41:35;;;;;;;0.10;0.10;;;0.20;99.90;;;;;;5053092;28;20053;-83
2022/03/04 02:44:09;;;;;;;1.30;1.08;;;0.20;99.90;;;;;;5036097;28;20049;-83
2022/03/04 02:46:35;;;;;;;0.10;0.10;;;0.20;99.90;;;;;;5036257;28;20119;-83
2022/03/04 02:49:03;;;;;;;1.55;0.75;;;0.20;99.90;;;;;;5036128;28;20132;-83
2022/03/04 02:51:28;;;;;;;0.65;0.28;;;0.20;99.90;;;;;;5052628;28;20084;-83
2022/03/04 02:53:54;;;;;;;0.43;0.32;;;0.20;99.90;;;;;;5035731;28;20084;-83
2022/03/04 02:56:20;;;;;;;0.30;0.30;;;0.10;99.90;;;;;;5036289;28;20060;-82
2022/03/04 02:58:45;;;;;;;0.38;0.38;;;0.10;99.90;;;;;;5052012;28;20055;-83
2022/03/04 03:01:11;;;;;;;0.40;0.40;;;0.10;99.90;;;;;;5035829;28;20556;-82
2022/03/04 03:03:37;;;;;;;0.88;0.10;;;0.00;99.90;;;;;;5052471;28;20476;-83
2022/03/04 03:06:04;;;;;;;2.75;0.52;;;-0.10;99.90;;;;;;5052632;28;20079;-82
2022/03/04 03:08:30;;;;;;;0.13;0.13;;;-0.10;99.90;;;;;;5052592;28;20048;-83
2022/03/04 03:10:56;;;;;;;0.00;0.00;;;-0.10;99.90;;;;;;5035800;28;20052;-82
2022/03/04 03:13:22;;;;;;;2.83;1.00;;;-0.10;99.90;;;;;;5035619;28;20124;-83
2022/03/04 03:15:48;;;;;;;0.08;0.05;;;-0.20;99.90;;;;;;5052464;28;20052;-82
2022/03/04 03:18:15;;;;;;;1.85;1.05;;;-0.20;99.90;;;;;;5051785;28;20485;-82
2022/03/04 03:20:41;;;;;;;0.30;0.30;;;-0.30;99.90;;;;;;5036019;28;20045;-83
2022/03/04 03:23:06;;;;;;;0.20;0.20;;;-0.30;99.90;;;;;;5035815;28;20060;-83
2022/03/04 03:25:32;;;;;;;0.25;0.20;;;-0.30;99.90;;;;;;5052546;28;20155;-83
2022/03/04 03:27:58;;;;;;;0.38;0.38;;;-0.30;99.90;;;;;;5035814;28;20040;-83
2022/03/04 03:30:24;;;;;;;0.00;0.00;;;-0.30;99.90;;;;;;5035949;28;20485;-83
2022/03/04 03:32:49;;;;;;;0.40;0.40;;;-0.30;99.90;;;;;;5035389;28;20041;-83
2022/03/04 03:35:15;;;;;;;1.17;0.45;;;-0.30;99.90;;;;;;5052164;28;20377;-82
2022/03/04 03:37:41;;;;;;;0.08;0.08;;;-0.30;99.90;;;;;;5035649;28;20146;-83
2022/03/04 03:40:09;;;;;;;0.75;0.40;;;-0.30;99.90;;;;;;5052172;28;20501;-82
2022/03/04 03:42:35;;;;;;;5.10;1.13;;;-0.30;99.90;;;;;;5052263;28;20071;-83
2022/03/04 03:45:01;;;;;;;0.77;0.77;;;-0.30;99.90;;;;;;5052129;28;20393;-84
2022/03/04 03:47:27;;;;;;;2.05;0.40;;;-0.40;99.90;;;;;;5035082;28;20057;-83
2022/03/04 03:49:53;;;;;;;5.03;1.30;;;-0.40;99.90;;;;;;5051888;28;20044;-84
2022/03/04 03:52:18;;;;;;;0.05;0.00;;;-0.40;99.90;;;;;;5035514;28;20132;-83
2022/03/04 03:54:44;;;;;;;0.13;0.13;;;-0.40;99.90;;;;;;5035527;28;20228;-84
2022/03/04 03:57:10;;;;;;;0.20;0.20;;;-0.50;99.90;;;;;;5051947;28;20136;-84
2022/03/04 03:59:37;;;;;;;0.95;0.68;;;-0.50;99.90;;;;;;5051542;28;20045;-83
2022/03/04 04:02:03;;;;;;;0.70;0.70;;;-0.50;99.90;;;;;;5035351;28;20056;-84
2022/03/04 04:04:34;;;;;;;1.17;0.47;;;-0.50;99.90;;;;;;5051481;28;20082;-83
2022/03/04 04:07:04;;;;;;;0.20;0.20;;;-0.50;99.90;;;;;;5055175;28;20049;-83
2022/03/04 04:09:30;;;;;;;1.75;0.98;;;-0.50;99.90;;;;;;5055911;28;20056;-83
2022/03/04 04:11:55;;;;;;;0.90;0.68;;;-0.60;99.90;;;;;;5039107;28;20060;-83
2022/03/04 04:14:21;;;;;;;3.65;1.05;;;-0.60;99.90;;;;;;5055603;28;20463;-83
2022/03/04 04:16:47;;;;;;;0.55;0.50;;;-0.60;99.90;;;;;;5038629;28;20477;-83
2022/03/04 04:19:12;;;;;;;0.20;0.20;;;-0.60;99.90;;;;;;5055348;28;20101;-83
2022/03/04 04:21:39;;;;;;;0.20;0.20;;;-0.70;99.90;;;;;;5039315;28;20045;-83
2022/03/04 04:24:05;;;;;;;0.43;0.40;;;-0.70;99.90;;;;;;5038674;28;20053;-83
2022/03/04 04:26:31;;;;;;;0.50;0.50;;;-0.70;99.90;;;;;;5038905;28;20045;-84
2022/03/04 04:28:58;;;;;;;0.20;0.20;;;-0.70;99.90;;;;;;5055510;28;20052;-84
2022/03/04 04:31:24;;;;;;;0.55;0.55;;;-0.70;99.90;;;;;;5055693;28;20106;-83
2022/03/04 04:33:50;;;;;;;0.28;0.28;;;-0.70;99.90;;;;;;5038544;28;20461;-83
2022/03/04 04:36:16;;;;;;;0.80;0.80;;;-0.70;99.90;;;;;;5055641;28;20051;-83
2022/03/04 04:38:42;;;;;;;0.25;0.05;;;-0.60;99.90;;;;;;5038790;28;20045;-83
2022/03/04 04:41:08;;;;;;;0.75;0.65;;;-0.60;99.90;;;;;;5055447;28;20051;-84
2022/03/04 04:43:34;;;;;;;0.57;0.57;;;-0.60;99.90;;;;;;5055258;28;20053;-84
2022/03/04 04:46:00;;;;;;;2.17;1.75;;;-0.60;99.90;;;;;;5038874;28;20412;-84
2022/03/04 04:48:25;;;;;;;0.82;0.82;;;-0.60;99.90;;;;;;5048055;28;20049;-85
2022/03/04 04:50:51;;;;;;;1.35;0.28;;;-0.60;99.90;;;;;;5044758;28;20053;-85
2022/03/04 04:53:17;;;;;;;2.38;1.27;;;-0.60;99.90;;;;;;5045761;28;20802;-85
2022/03/04 04:55:42;;;;;;;0.10;0.10;;;-0.50;99.90;;;;;;5064949;28;20499;-85
2022/03/04 04:58:08;;;;;;;0.40;0.40;;;-0.50;99.90;;;;;;5060961;28;20534;-85
2022/03/04 05:00:34;;;;;;;3.00;1.25;;;-0.50;99.90;;;;;;5047175;28;20050;-85
2022/03/04 05:03:00;;;;;;;0.00;0.00;;;-0.50;99.90;;;;;;5064034;28;20115;-84
2022/03/04 05:05:25;;;;;;;0.30;0.13;;;-0.40;99.90;;;;;;5045872;28;20105;-85
2022/03/04 05:07:51;;;;;;;0.03;0.03;;;-0.40;99.90;;;;;;5047690;28;20094;-84
2022/03/04 05:10:17;;;;;;;0.80;0.80;;;-0.50;99.90;;;;;;5045898;28;20488;-83
2022/03/04 05:12:43;;;;;;;0.13;0.13;;;-0.40;99.90;;;;;;5062132;28;20049;-84
2022/03/04 05:15:09;;;;;;;0.15;0.15;;;-0.50;99.90;;;;;;5046077;28;20040;-83
2022/03/04 05:17:34;;;;;;;0.20;0.20;;;-0.50;99.90;;;;;;5062243;28;20079;-84
2022/03/04 05:20:00;;;;;;;0.20;0.20;;;-0.50;99.90;;;;;;5046127;28;20045;-84
2022/03/04 05:22:26;;;;;;;0.00;0.00;;;-0.50;99.90;;;;;;5046991;28;20044;-83
2022/03/04 05:24:52;;;;;;;0.32;0.32;;;-0.50;99.90;;;;;;5061289;28;20041;-84
2022/03/04 05:27:17;;;;;;;1.17;1.05;;;-0.50;99.90;;;;;;5062811;28;20181;-83
2022/03/04 05:29:43;;;;;;;0.20;0.20;;;-0.50;99.90;;;;;;5045769;28;20063;-83
2022/03/04 05:32:10;;;;;;;5.43;3.22;;;-0.20;99.90;;;;;;5054045;28;20037;-83
2022/03/04 05:34:37;;;;;;;0.00;0.00;;;-0.50;99.90;;;;;;5037954;28;20388;-83
2022/03/04 05:37:04;;;;;;;0.00;0.00;;;-0.40;99.90;;;;;;5039935;28;20098;-84
2022/03/04 05:39:29;;;;;;;0.03;0.03;;;-0.40;99.90;;;;;;5045444;28;20053;-83
2022/03/04 05:41:55;;;;;;;0.20;0.20;;;-0.50;99.90;;;;;;5062521;28;20094;-83
2022/03/04 05:44:21;;;;;;;0.30;0.30;;;-0.50;99.90;;;;;;5063771;28;20092;-83
2022/03/04 05:46:47;;;;;;;7.25;1.23;;;-0.50;99.90;;;;;;5044754;28;20060;-84
2022/03/04 05:49:12;;;;;;;2.10;0.73;;;-0.50;99.90;;;;;;5045973;28;20455;-83
2022/03/04 05:51:38;;;;;;;5.47;0.40;;;-0.50;99.90;;;;;;5046297;28;20091;-84
2022/03/04 05:54:04;;;;;;;0.93;0.88;;;-0.50;99.90;;;;;;5060965;28;20047;-84
2022/03/04 05:56:29;;;;;;;0.60;0.60;;;-0.50;99.90;;;;;;5050695;28;20055;-83
2022/03/04 05:58:55;;;;;;;0.00;0.00;;;-0.50;99.90;;;;;;5073587;28;20048;-83
2022/03/04 06:01:21;;;;;;;0.38;0.38;;;-0.50;99.90;;;;;;5057579;28;20057;-83
2022/03/04 06:03:47;;;;;;;0.45;0.45;;;-0.40;99.90;;;;;;5073895;28;20052;-83
2022/03/04 06:06:13;;;;;;;1.55;1.13;;;-0.40;99.90;;;;;;5050021;28;20044;-83
2022/03/04 06:08:40;;;;;;;1.45;0.80;;;-0.40;99.90;;;;;;5046477;28;20404;-83
2022/03/04 06:11:08;;;;;;;4.43;1.73;;;-0.40;99.90;;;;;;5062359;28;20036;-84
2022/03/04 06:13:35;;;;;;;0.88;0.52;;;-0.40;99.90;;;;;;5047334;28;20388;-83
2022/03/04 06:16:01;;;;;;;0.60;0.52;;;-0.40;99.90;;;;;;5063277;28;20403;-83
2022/03/04 06:18:27;;;;;;;0.05;0.05;;;-0.40;99.90;;;;;;5054116;28;20045;-83
2022/03/04 06:20:53;;;;;;;0.10;0.10;;;-0.40;99.90;;;;;;5036839;28;20507;-83
2022/03/04 06:23:18;;;;;;;0.43;0.20;;;-0.40;99.90;;;;;;5054244;28;20519;-82
2022/03/04 06:25:44;;;;;;;1.45;1.35;;;-0.40;99.90;;;;;;5061287;28;20439;-84
2022/03/04 06:28:09;;;;;;;0.32;0.32;;;-0.50;99.90;;;;;;5061165;28;20052;-84
2022/03/04 06:30:38;;;;;;;0.68;0.43;;;-0.50;99.90;;;;;;5047190;28;20110;-83
2022/03/04 06:35:51;;;;;;;2.33;0.75;;;-0.50;99.90;;;;;;5062516;28;20044;-84
2022/03/04 06:38:17;;;;;;;1.08;1.08;;;-0.40;99.90;;;;;;5046193;28;20067;-84
2022/03/04 06:40:44;;;;;;;0.10;0.10;;;-0.50;99.90;;;;;;5053365;28;20079;-85
2022/03/04 06:43:10;;;;;;;1.25;0.98;;;-0.40;99.90;;;;;;5058636;28;20045;-85
2022/03/04 06:45:37;;;;;;;1.27;0.60;;;-0.40;99.90;;;;;;5060841;28;20048;-86
2022/03/04 06:48:03;;;;;;;0.65;0.15;;;-0.40;99.90;;;;;;5038062;28;20056;-85
2022/03/04 06:50:29;;;;;;;0.65;0.65;;;-0.50;99.90;;;;;;5054064;28;20041;-83
2022/03/04 06:52:55;;;;;;;0.20;0.20;;;-0.50;99.90;;;;;;5039930;28;20067;-83
2022/03/04 06:55:22;;;;;;;0.30;0.20;;;-0.40;99.90;;;;;;5060291;28;20163;-84
2022/03/04 06:57:50;;;;;;;0.10;0.10;;;-0.40;99.90;;;;;;5043439;28;20516;-85
2022/03/04 07:00:16;;;;;;;0.30;0.30;;;-0.40;99.90;;;;;;5063452;28;20049;-84
2022/03/04 07:02:42;;;;;;;0.63;0.47;;;-0.40;99.90;;;;;;5037204;28;20041;-88
2022/03/04 07:05:08;;;;;;;0.30;0.30;;;-0.30;99.90;;;;;;5054032;28;20378;-88
2022/03/04 07:07:35;;;;;;;4.85;1.30;;;-0.30;99.90;;;;;;5037960;28;20076;-89
2022/03/04 07:10:01;;;;;;;4.78;0.60;;;-0.30;99.90;;;;;;5037736;28;20045;-87
2022/03/04 07:12:27;;;;;;;0.85;0.85;;;-0.30;99.90;;;;;;5054554;28;20074;-87
2022/03/04 07:14:53;;;;;;;0.30;0.30;;;-0.30;99.90;;;;;;5054264;28;20131;-87
2022/03/04 07:17:18;;;;;;;0.88;0.88;;;-0.30;99.90;;;;;;5037373;28;20138;-87
2022/03/04 07:19:44;;;;;;;0.20;0.20;;;-0.30;99.90;;;;;;5036589;28;20435;-88
2022/03/04 07:22:10;;;;;;;4.22;0.55;;;-0.40;99.90;;;;;;5051939;28;20041;-87
2022/03/04 07:24:36;;;;;;;1.13;0.45;;;0.00;99.90;;;;;;5052269;28;20040;-86
2022/03/04 07:27:02;;;;;;;0.17;0.17;;;-0.30;99.90;;;;;;5045465;28;20123;-87
2022/03/04 07:29:28;;;;;;;0.55;0.43;;;-0.40;99.90;;;;;;5044220;28;20102;-86
2022/03/04 07:31:54;;;;;;;1.98;1.02;;;-0.40;99.90;;;;;;5043464;28;20446;-86
2022/03/04 07:34:22;;;;;;;0.35;0.35;;;-0.40;99.90;;;;;;5061730;28;20392;-85
2022/03/04 07:36:48;;;;;;;1.15;1.15;;;-0.30;99.90;;;;;;5060984;28;20044;-89
2022/03/04 07:39:14;;;;;;;0.28;0.22;;;-0.40;99.90;;;;;;5059913;28;20545;-86
2022/03/04 07:41:40;;;;;;;1.75;1.23;;;-0.40;99.90;;;;;;5064459;28;20048;-85
2022/03/04 07:44:06;;;;;;;0.68;0.68;;;-0.40;99.90;;;;;;5047711;28;20037;-84
2022/03/04 07:46:32;;;;;;;1.55;1.20;;;-0.30;99.90;;;;;;5064205;28;20128;-86
2022/03/04 07:48:57;;;;;;;0.50;0.50;;;-0.20;99.90;;;;;;5048960;28;20102;-86
2022/03/04 07:51:24;;;;;;;0.10;0.10;;;-0.20;99.90;;;;;;5047432;28;20404;-86
2022/03/04 07:53:50;;;;;;;0.38;0.38;;;-0.10;99.90;;;;;;5047664;28;20075;-86
2022/03/04 07:56:15;;;;;;;0.30;0.30;;;-0.10;99.90;;;;;;5049053;28;20105;-85
2022/03/04 07:58:41;;;;;;;1.33;0.80;;;0.00;99.90;;;;;;5047158;28;20508;-85
2022/03/04 08:01:08;;;;;;;0.80;0.55;;;0.00;99.90;;;;;;5066123;28;20433;-87
2022/03/04 08:03:34;;;;;;;0.43;0.35;;;0.30;99.90;;;;;;5064398;28;20112;-86
2022/03/04 08:06:00;;;;;;;0.45;0.45;;;0.00;99.90;;;;;;5047811;28;20104;-83
2022/03/04 08:08:26;;;;;;;0.75;0.75;;;0.00;99.90;;;;;;5050099;28;20036;-84
2022/03/04 08:10:53;;;;;;;0.00;0.00;;;0.20;99.90;;;;;;5065118;28;20385;-83
2022/03/04 08:13:18;;;;;;;1.33;1.23;;;0.10;99.90;;;;;;5046677;28;20513;-83
2022/03/04 08:15:44;;;;;;;1.70;0.88;;;0.20;99.90;;;;;;5064886;28;20044;-83
2022/03/04 08:18:10;;;;;;;0.35;0.35;;;0.20;99.90;;;;;;5047757;28;20045;-84
2022/03/04 08:20:36;;;;;;;0.52;0.52;;;0.10;99.90;;;;;;5046667;28;20123;-84
2022/03/04 08:23:02;;;;;;;0.00;0.00;;;0.20;99.90;;;;;;5048652;28;20056;-84
2022/03/04 08:25:28;;;;;;;0.28;0.28;;;0.20;99.90;;;;;;5065034;28;20040;-83
2022/03/04 08:27:54;;;;;;;3.42;0.88;;;0.20;99.90;;;;;;5046591;28;20436;-83
2022/03/04 08:30:20;;;;;;;1.48;1.38;;;0.30;99.90;;;;;;5045233;28;20492;-83
2022/03/04 08:32:45;;;;;;;0.55;0.45;;;0.40;99.90;;;;;;5038643;28;20075;-83
2022/03/04 08:35:11;;;;;;;1.98;1.42;;;0.50;99.90;;;;;;5039015;28;20562;-83
2022/03/04 08:37:38;;;;;;;1.58;1.48;;;0.50;99.90;;;;;;5057819;28;20125;-84
2022/03/04 08:40:05;;;;;;;1.30;1.23;;;0.60;99.90;;;;;;5038748;28;20087;-83
2022/03/04 08:42:31;;;;;;;0.35;0.35;;;0.60;99.90;;;;;;5039703;28;20072;-85
2022/03/04 08:44:57;;;;;;;0.57;0.57;;;0.70;99.90;;;;;;5049614;28;20095;-84
2022/03/04 08:47:23;;;;;;;0.47;0.47;;;0.70;99.90;;;;;;5038831;28;20057;-84
2022/03/04 08:49:49;;;;;;;5.15;2.22;;;0.80;99.90;;;;;;5069869;28;20484;-85
2022/03/04 08:52:14;;;;;;;0.50;0.50;;;0.90;99.90;;;;;;5074676;28;20079;-83
2022/03/04 08:54:40;;;;;;;0.05;0.05;;;1.00;99.90;;;;;;5058405;28;20053;-84
2022/03/04 08:57:06;;;;;;;1.75;0.80;;;1.20;99.90;;;;;;5075180;28;20480;-86
2022/03/04 08:59:32;;;;;;;2.03;0.55;;;1.30;99.90;;;;;;5074762;28;20052;-84
2022/03/04 09:01:58;;;;;;;0.30;0.30;;;1.50;99.90;;;;;;5043835;28;20072;-84
2022/03/04 09:04:24;;;;;;;0.55;0.55;;;1.60;99.90;;;;;;5054776;28;20496;-84
2022/03/04 09:06:50;;;;;;;1.42;0.82;;;1.80;99.90;;;;;;5055014;28;20045;-85
2022/03/04 09:09:16;;;;;;;3.88;1.45;;;1.70;99.90;;;;;;5039189;28;20044;-86
2022/03/04 09:11:43;;;;;;;0.40;0.40;;;1.60;99.90;;;;;;5053817;28;20090;-84
2022/03/04 09:14:09;;;;;;;0.90;0.73;;;1.60;99.90;;;;;;5066378;28;20048;-86
2022/03/04 09:16:35;;;;;;;4.32;1.45;;;1.50;99.90;;;;;;5054200;28;20139;-86
2022/03/04 09:19:01;;;;;;;0.30;0.30;;;1.70;99.90;;;;;;5038402;28;20056;-87
2022/03/04 09:21:28;;;;;;;0.52;0.47;;;1.80;99.90;;;;;;5055598;28;20059;-86
2022/03/04 09:23:53;;;;;;;1.50;1.02;;;1.90;99.90;;;;;;5069355;28;20040;-86
2022/03/04 09:26:20;;;;;;;0.10;0.10;;;2.40;99.90;;;;;;5038217;28;20051;-86
2022/03/04 09:28:47;;;;;;;3.60;1.38;;;2.30;99.90;;;;;;5055538;28;20098;-85
2022/03/04 09:31:13;;;;;;;1.27;0.47;;;2.40;99.90;;;;;;5054600;28;20554;-85
2022/03/04 09:33:39;;;;;;;6.13;0.85;;;2.60;99.90;;;;;;5037652;28;20164;-84
2022/03/04 09:36:07;;;;;;;1.08;0.95;;;2.60;99.90;;;;;;5038270;28;20468;-84
2022/03/04 09:38:33;;;;;;;0.10;0.10;;;2.70;99.90;;;;;;5064780;28;20040;-84
2022/03/04 09:40:59;;;;;;;2.28;0.82;;;2.80;99.90;;;;;;5049289;28;20098;-84
2022/03/04 09:43:25;;;;;;;1.08;0.85;;;3.00;99.90;;;;;;5042507;28;20068;-84
2022/03/04 09:45:51;;;;;;;3.60;1.45;;;3.10;99.90;;;;;;5057840;28;20045;-84
2022/03/04 09:48:17;;;;;;;1.38;1.05;;;2.90;99.90;;;;;;5055318;28;20094;-83
2022/03/04 09:50:48;;;;;;;2.08;0.47;;;2.80;99.90;;;;;;5037403;28;20049;-84
2022/03/04 09:53:15;;;;;;;0.40;0.32;;;2.70;99.90;;;;;;5054433;28;20090;-84
2022/03/04 09:55:42;;;;;;;0.68;0.50;;;2.70;99.90;;;;;;5053951;28;20045;-83
2022/03/04 09:58:19;;;;;;;0.52;0.30;;;2.70;99.90;;;;;;5037133;28;20061;-84
2022/03/04 10:00:45;;;;;;;0.38;0.38;;;2.50;99.90;;;;;;5054055;28;20099;-84
2022/03/04 10:03:40;;;;;;;1.27;0.98;;;2.60;99.90;;;;;;5036839;28;20049;-84
2022/03/04 10:06:06;;;;;;;2.03;1.10;;;2.60;99.90;;;;;;5054256;28;20518;-84
2022/03/04 10:08:47;;;;;;;0.17;0.13;;;2.60;99.90;;;;;;5037310;28;20323;-84
2022/03/04 10:11:24;;;;;;;0.60;0.40;;;2.80;99.90;;;;;;5054400;28;20396;-84
2022/03/04 10:13:53;;;;;;;0.98;0.98;;;3.00;99.90;;;;;;5053834;28;20065;-84
2022/03/04 10:16:23;;;;;;;2.92;1.58;;;3.10;99.90;;;;;;5036938;28;20044;-85
2022/03/04 10:19:04;;;;;;;0.32;0.17;;;3.50;99.90;;;;;;5053325;28;20041;-86
2022/03/04 10:21:52;;;;;;;3.30;0.75;;;3.50;99.90;;;;;;5054129;28;20354;-86
2022/03/04 10:24:21;;;;;;;0.80;0.80;;;3.50;99.90;;;;;;5037299;28;20124;-86
2022/03/04 10:26:56;;;;;;;0.28;0.28;;;3.80;99.90;;;;;;5053492;28;20048;-85
2022/03/04 10:29:24;;;;;;;0.40;0.40;;;4.00;99.90;;;;;;5036840;28;20056;-86
2022/03/04 10:32:10;;;;;;;1.45;1.10;;;4.10;99.90;;;;;;5036468;28;20057;-86
2022/03/04 10:34:50;;;;;;;0.30;0.30;;;3.90;99.90;;;;;;5036877;28;20064;-87
2022/03/04 10:37:22;;;;;;;4.43;0.47;;;3.80;99.90;;;;;;5036718;28;20045;-86
2022/03/04 10:39:59;;;;;;;0.85;0.85;;;4.00;99.90;;;;;;5053146;28;20044;-87
2022/03/04 10:42:50;;;;;;;1.38;1.38;;;4.20;99.90;;;;;;5037578;28;20405;-86
2022/03/04 10:45:28;;;;;;;3.92;1.08;;;4.50;99.90;;;;;;5036936;28;20439;-86
2022/03/04 10:48:02;;;;;;;1.50;0.60;;;4.80;99.90;;;;;;5036698;28;20088;-86
2022/03/04 10:50:36;;;;;;;0.75;0.68;;;5.00;99.90;;;;;;5053185;28;20052;-87
2022/03/04 10:53:03;;;;;;;0.17;0.17;;;4.90;99.90;;;;;;5036302;28;20511;-87
2022/03/04 10:55:30;;;;;;;1.45;1.17;;;5.00;99.90;;;;;;5053068;28;20067;-87
2022/03/04 10:57:58;;;;;;;1.63;0.95;;;5.20;99.90;;;;;;5052668;28;20053;-87
2022/03/04 11:00:26;;;;;;;7.60;0.60;;;5.30;99.90;;;;;;5036461;28;20045;-86
2022/03/04 11:02:53;;;;;;;2.45;1.20;;;5.30;99.90;;;;;;5052685;28;20094;-85
2022/03/04 11:05:19;;;;;;;0.47;0.47;;;5.50;99.90;;;;;;5052893;28;20486;-85
2022/03/04 11:07:45;;;;;;;0.30;0.30;;;5.70;99.90;;;;;;5052857;28;20404;-86
2022/03/04 11:10:11;;;;;;;1.27;0.30;;;5.90;99.90;;;;;;5052675;28;20041;-85
2022/03/04 11:12:40;;;;;;;0.60;0.30;;;6.10;99.90;;;;;;5036209;28;20041;-85
2022/03/04 11:15:06;;;;;;;0.30;0.30;;;6.30;99.90;;;;;;5036111;28;20053;-86
2022/03/04 11:17:33;;;;;;;2.83;1.58;;;6.30;99.90;;;;;;5036096;28;20044;-86
2022/03/04 11:19:59;;;;;;;0.88;0.57;;;6.30;99.90;;;;;;5036065;28;20054;-86
2022/03/04 11:22:25;;;;;;;0.68;0.30;;;6.60;99.90;;;;;;5036211;28;20486;-86
2022/03/04 11:24:51;;;;;;;4.15;0.57;;;6.70;99.90;;;;;;5036043;28;20045;-86
2022/03/04 11:27:19;;;;;;;0.98;0.82;;;6.90;99.90;;;;;;5035957;28;20056;-86
2022/03/04 11:29:45;;;;;;;1.38;0.25;;;6.90;99.90;;;;;;5035876;28;20370;-86
2022/03/04 11:32:11;;;;;;;1.55;0.82;;;7.20;99.90;;;;;;5052556;28;20102;-87
2022/03/04 11:34:42;;;;;;;1.55;0.38;;;7.10;99.90;;;;;;5052526;28;20048;-87
2022/03/04 11:37:19;;;;;;;0.95;0.63;;;7.30;99.90;;;;;;5035898;28;20047;-87
2022/03/04 11:40:06;;;;;;;0.82;0.30;;;7.40;99.90;;;;;;5052669;28;20048;-87
2022/03/04 11:42:37;;;;;;;0.77;0.65;;;7.30;98.30;;;;;;5036107;28;20052;-87
2022/03/04 11:45:07;;;;;;;0.17;0.17;;;7.20;97.10;;;;;;5035958;28;20133;-87
2022/03/04 11:47:43;;;;;;;1.83;0.38;;;7.30;98.50;;;;;;5035949;28;20053;-87
2022/03/04 11:50:30;;;;;;;0.00;0.00;;;7.40;97.00;;;;;;5052735;28;20037;-88
2022/03/04 11:53:15;;;;;;;0.30;0.25;;;7.60;96.60;;;;;;5035509;28;20481;-87
2022/03/04 11:56:01;;;;;;;0.03;0.03;;;7.70;96.50;;;;;;5052472;28;20098;-88
2022/03/04 11:58:26;;;;;;;3.63;0.40;;;7.70;95.70;;;;;;5051712;28;20053;-89
2022/03/04 12:00:52;;;;;;;0.90;0.50;;;7.90;95.70;;;;;;5052390;28;20047;-88
2022/03/04 12:03:18;;;;;;;1.10;0.68;;;8.00;95.10;;;;;;5052501;28;20554;-88
2022/03/04 12:05:49;;;;;;;0.22;0.22;;;8.20;95.10;;;;;;5052383;28;20535;-88
2022/03/04 12:08:15;;;;;;;0.25;0.25;;;8.40;93.80;;;;;;5035879;28;20045;-88
2022/03/04 12:10:40;;;;;;;1.42;0.22;;;8.30;92.90;;;;;;5035852;28;20056;-88
2022/03/04 12:13:18;;;;;;;1.48;0.80;;;8.40;93.20;;;;;;5035655;28;20045;-89
2022/03/04 12:15:58;;;;;;;0.20;0.17;;;8.50;92.70;;;;;;5052691;28;20464;-88
2022/03/04 12:18:28;;;;;;;2.38;0.55;;;8.40;90.80;;;;;;5052760;28;20369;-88
2022/03/04 12:21:03;;;;;;;1.42;0.20;;;8.50;92.00;;;;;;5035584;28;20079;-88
2022/03/04 12:23:36;;;;;;;0.70;0.00;;;8.40;90.80;;;;;;5052475;28;20080;-88
2022/03/04 12:26:01;;;;;;;4.25;0.32;;;8.90;91.80;;;;;;5052298;28;20098;-88
2022/03/04 12:28:41;;;;;;;0.32;0.32;;;9.30;90.00;;;;;;5056365;28;20505;-88
2022/03/04 12:31:15;;;;;;;2.85;0.73;;;9.40;85.90;;;;;;5055647;28;20135;-88
2022/03/04 12:33:45;;;;;;;0.35;0.17;;;9.90;82.90;;;;;;5038866;28;20449;-88
2022/03/04 12:36:14;;;;;;;0.95;0.30;;;10.10;81.90;;;;;;5039187;28;20044;-88
2022/03/04 12:38:44;;;;;;;1.20;0.60;;;10.20;77.20;;;;;;5055528;28;20080;-88
2022/03/04 12:41:16;;;;;;;5.10;0.55;;;10.50;77.80;;;;;;5055832;28;20052;-87
2022/03/04 12:43:44;;;;;;;0.20;0.20;;;10.90;77.50;;;;;;5055819;28;20057;-88
2022/03/04 12:46:11;;;;;;;1.00;0.00;;;11.10;75.40;;;;;;5038845;28;20084;-88
2022/03/04 12:48:37;;;;;;;0.30;0.30;;;11.00;72.00;;;;;;5055256;28;20508;-87
2022/03/04 12:51:31;;;;;;;0.80;0.28;;;10.90;70.40;;;;;;5038704;28;20040;-87
2022/03/04 12:54:03;;;;;;;6.30;0.82;;;10.80;71.60;;;;;;5090846;28;20287;-88
2022/03/04 12:56:29;;;;;;;1.60;0.20;;;10.80;70.90;;;;;;5074449;28;20102;-87